Time;durP1;ratioP1;P1;durP2;ratioP2;P2;SDS_P1;SDS_P2;PMS_P1;PMS_P2;Temp;Humidity;BMP_temperature;BMP_pressure;BME280_temperature;BME280_humidity;BME280_pressure;Samples;Min_cycle;Max_cycle;Signal;HPM_P1;HPM_P2
2021/07/01 00:02:20;;;;;;;3.97;3.57;;;;;;;21.23;57.16;99382.48;126866;1090;102937;-81
2021/07/01 00:05:12;;;;;;;3.43;3.13;;;;;;;21.18;57.57;99397.95;126630;1090;112997;-81
2021/07/01 00:08:00;;;;;;;3.43;3.13;;;;;;;21.12;56.94;99402.83;126718;1090;102946;-81
2021/07/01 00:10:48;;;;;;;5.70;3.20;;;;;;;21.05;57.30;99408.83;126733;1088;114123;-81
2021/07/01 00:13:35;;;;;;;3.90;3.57;;;;;;;20.96;56.65;99410.47;126711;1090;103039;-81
2021/07/01 00:16:23;;;;;;;4.73;3.70;;;;;;;20.90;57.67;99410.18;126654;1090;114070;-81
2021/07/01 00:19:11;;;;;;;6.23;3.90;;;;;;;20.85;57.92;99399.16;126639;1088;102930;-81
2021/07/01 00:22:00;;;;;;;3.43;3.13;;;;;;;20.79;57.73;99385.45;126584;1088;114419;-80
2021/07/01 00:24:47;;;;;;;;;;;;;;;20.76;58.16;99392.83;126716;1088;102871;-81
2021/07/01 00:27:35;;;;;;;5.23;3.53;;;;;;;20.72;58.13;99388.78;126739;1089;102902;-80
2021/07/01 00:30:25;;;;;;;4.20;3.43;;;;;;;20.66;58.04;99395.47;126678;1089;102679;-80
2021/07/01 00:33:13;;;;;;;4.50;4.10;;;;;;;20.63;57.79;99389.57;126712;1089;103133;-80
2021/07/01 00:36:02;;;;;;;4.43;3.60;;;;;;;20.57;58.42;99395.42;126686;1090;101640;-80
2021/07/01 00:38:50;;;;;;;5.33;4.17;;;;;;;20.50;58.20;99390.66;126739;1089;101897;-81
2021/07/01 00:41:40;;;;;;;4.63;4.20;;;;;;;20.45;58.63;99390.20;126556;1090;114305;-81
2021/07/01 00:44:28;;;;;;;4.30;4.00;;;;;;;20.40;58.89;99394.19;126708;1090;103457;-81
2021/07/01 00:47:17;;;;;;;4.00;3.60;;;;;;;20.35;58.99;99391.95;126749;1089;114268;-80
2021/07/01 00:50:08;;;;;;;4.70;4.30;;;;;;;20.36;59.07;99385.68;126742;1089;100599;-81
2021/07/01 00:52:55;;;;;;;4.97;4.27;;;;;;;20.32;58.99;99386.92;126638;1089;114254;-80
2021/07/01 00:55:44;;;;;;;4.77;4.27;;;;;;;20.27;59.36;99389.11;126855;1090;103049;-80
2021/07/01 00:58:33;;;;;;;4.70;4.00;;;;;;;20.21;59.36;99379.89;126632;1089;114084;-80
2021/07/01 01:01:22;;;;;;;6.10;4.03;;;;;;;20.19;59.36;99370.41;126701;1088;102855;-81
2021/07/01 01:04:10;;;;;;;4.80;4.30;;;;;;;20.18;59.74;99371.38;126637;1088;114277;-80
2021/07/01 01:06:58;;;;;;;4.80;4.30;;;;;;;20.16;59.47;99370.67;126704;1089;102948;-80
2021/07/01 01:09:46;;;;;;;4.73;4.23;;;;;;;20.13;59.68;99376.23;126526;1089;114452;-81
2021/07/01 01:12:34;;;;;;;5.17;3.83;;;;;;;20.12;59.63;99369.27;126722;1089;102703;-80
2021/07/01 01:15:23;;;;;;;4.40;4.00;;;;;;;20.10;59.59;99371.17;126855;1090;102855;-80
2021/07/01 01:18:11;;;;;;;4.60;4.07;;;;;;;20.06;59.79;99364.47;126587;1089;113990;-80
2021/07/01 01:21:00;;;;;;;4.70;4.30;;;;;;;20.04;59.47;99369.06;126725;1090;102875;-78
2021/07/01 01:23:49;;;;;;;4.30;4.00;;;;;;;20.03;60.05;99373.52;126503;1089;114145;-78
2021/07/01 01:26:38;;;;;;;5.50;4.23;;;;;;;20.01;59.52;99366.68;126642;1088;102867;-78
2021/07/01 01:29:27;;;;;;;4.23;3.83;;;;;;;19.99;60.01;99373.92;126675;1090;114156;-78
2021/07/01 01:32:15;;;;;;;4.40;3.70;;;;;;;19.95;59.80;99368.05;126830;1088;102420;-79
2021/07/01 01:35:04;;;;;;;4.50;4.10;;;;;;;19.92;60.16;99361.19;126460;1088;114298;-80
2021/07/01 01:37:52;;;;;;;5.83;4.17;;;;;;;19.91;59.92;99362.16;126623;1090;102939;-80
2021/07/01 01:40:44;;;;;;;5.40;4.45;;;;;;;19.91;60.29;99372.73;126555;1090;114336;-78
2021/07/01 01:43:32;;;;;;;4.40;4.00;;;;;;;19.90;60.24;99371.06;126667;1089;102857;-78
2021/07/01 01:46:21;;;;;;;6.67;4.40;;;;;;;19.88;59.95;99366.88;126609;1089;114250;-79
2021/07/01 01:49:10;;;;;;;4.60;4.20;;;;;;;19.83;60.42;99375.20;126711;1090;102933;-79
2021/07/01 01:51:59;;;;;;;6.40;4.63;;;;;;;19.82;60.27;99373.53;126580;1089;114403;-77
2021/07/01 01:54:49;;;;;;;5.03;4.50;;;;;;;19.77;60.24;99365.15;126679;1090;102872;-79
2021/07/01 01:57:37;;;;;;;5.03;4.53;;;;;;;19.76;60.64;99358.19;126830;1090;102864;-79
2021/07/01 02:00:45;;;;;;;4.60;4.13;;;;;;;19.76;60.34;99373.22;126714;1089;103314;-80
2021/07/01 02:03:34;;;;;;;8.43;4.57;;;;;;;19.76;60.18;99362.64;126602;1090;102868;-77
2021/07/01 02:06:28;;;;;;;4.73;4.33;;;;;;;19.77;60.89;99370.44;126550;1090;113213;-79
2021/07/01 02:09:16;;;;;;;7.30;4.57;;;;;;;19.77;60.93;99359.02;126689;1090;102889;-77
2021/07/01 02:12:09;;;;;;;6.07;4.50;;;;;;;19.72;60.64;99356.73;126554;1090;113258;-79
2021/07/01 02:14:59;;;;;;;5.80;4.50;;;;;;;19.69;60.76;99357.00;126795;1090;100434;-79
2021/07/01 02:18:00;;;;;;;4.53;4.13;;;;;;;19.66;61.08;99357.27;126700;1090;113246;-78
2021/07/01 02:20:50;;;;;;;5.97;4.50;;;;;;;19.65;60.82;99354.75;126658;1088;103016;-79
2021/07/01 02:23:40;;;;;;;5.03;4.63;;;;;;;19.64;61.11;99363.66;126736;1090;114185;-79
2021/07/01 02:26:29;;;;;;;5.60;5.07;;;;;;;19.62;61.27;99369.08;126691;1090;102879;-79
2021/07/01 02:29:18;;;;;;;7.63;4.93;;;;;;;19.59;60.98;99367.53;126552;1088;114057;-79
2021/07/01 02:32:38;;;;;;;5.27;4.73;;;;;;;19.58;61.39;99365.02;126824;1090;102960;-79
2021/07/01 02:35:27;;;;;;;5.07;4.40;;;;;;;19.55;61.60;99370.53;126498;1090;114101;-80
2021/07/01 02:38:33;;;;;;;5.35;4.85;;;;;;;19.56;61.91;99382.78;126719;1089;102730;-79
2021/07/01 02:41:29;;;;;;;6.50;4.73;;;;;;;19.55;61.34;99384.59;126608;1090;114279;-79
2021/07/01 02:44:18;;;;;;;5.67;5.17;;;;;;;19.54;61.28;99376.79;126694;1090;101797;-79
2021/07/01 02:47:24;;;;;;;5.63;5.13;;;;;;;19.54;61.41;99384.72;126627;1088;114281;-79
2021/07/01 02:50:15;;;;;;;5.80;5.13;;;;;;;19.54;61.73;99390.02;126634;1089;102950;-79
2021/07/01 02:53:03;;;;;;;6.10;5.43;;;;;;;19.56;62.04;99388.08;126588;1088;114200;-79
2021/07/01 02:55:52;;;;;;;6.13;5.53;;;;;;;19.62;61.74;99390.23;126659;1090;102804;-80
2021/07/01 02:58:41;;;;;;;7.30;5.70;;;;;;;19.69;61.86;99391.39;126586;1088;114453;-79
2021/07/01 03:01:58;;;;;;;5.93;5.43;;;;;;;19.74;61.90;99381.25;126682;1090;103061;-79
2021/07/01 03:04:52;;;;;;;6.30;5.53;;;;;;;19.76;61.52;99397.87;126541;1089;114289;-79
2021/07/01 03:07:40;;;;;;;5.77;5.23;;;;;;;19.74;61.46;99397.13;126758;1089;102699;-79
2021/07/01 03:10:28;;;;;;;8.63;5.57;;;;;;;19.74;61.46;99397.13;126534;1090;114450;-79
2021/07/01 03:13:35;;;;;;;6.23;5.63;;;;;;;19.74;61.69;99397.13;126657;1090;102834;-79
2021/07/01 03:16:27;;;;;;;5.87;5.33;;;;;;;19.77;61.61;99390.77;126595;1088;113237;-79
2021/07/01 03:19:15;;;;;;;6.00;5.40;;;;;;;19.81;61.19;99392.19;126646;1089;102908;-79
2021/07/01 03:22:22;;;;;;;5.90;5.30;;;;;;;19.87;61.34;99402.24;126714;1089;114371;-79
2021/07/01 03:25:12;;;;;;;5.70;5.20;;;;;;;19.91;61.60;99408.95;126649;1089;102893;-79
2021/07/01 03:28:00;;;;;;;9.20;6.30;;;;;;;19.92;61.52;99414.11;126652;1090;102868;-79
2021/07/01 03:30:49;;;;;;;7.53;6.17;;;;;;;19.96;61.50;99413.88;126508;1089;113125;-79
2021/07/01 03:33:37;;;;;;;6.70;6.10;;;;;;;19.97;61.23;99412.91;126639;1090;103020;-79
2021/07/01 03:36:26;;;;;;;6.90;6.20;;;;;;;20.01;61.04;99406.38;126549;1090;113108;-79
2021/07/01 03:39:40;;;;;;;5.63;5.13;;;;;;;20.07;61.48;99403.20;126774;1090;103004;-79
2021/07/01 03:42:39;;;;;;;6.07;5.47;;;;;;;20.13;61.49;99406.19;126762;1090;114407;-79
2021/07/01 03:45:27;;;;;;;6.80;5.63;;;;;;;20.20;61.23;99399.39;126652;1089;102866;-79
2021/07/01 03:48:15;;;;;;;6.60;5.23;;;;;;;20.24;61.08;99399.97;126589;1089;113061;-79
2021/07/01 03:51:23;;;;;;;6.00;5.40;;;;;;;20.28;60.75;99411.97;126671;1088;102860;-79
2021/07/01 03:54:28;;;;;;;6.37;5.77;;;;;;;20.32;60.58;99405.46;126669;1089;114115;-80
2021/07/01 03:57:17;;;;;;;6.70;6.10;;;;;;;20.41;60.84;99402.04;126685;1089;102917;-80
2021/07/01 04:00:15;;;;;;;7.00;5.70;;;;;;;20.44;60.20;99412.36;126650;1090;114102;-80
2021/07/01 04:03:05;;;;;;;7.40;6.60;;;;;;;20.48;59.99;99403.20;126707;1088;102917;-80
2021/07/01 04:06:14;;;;;;;7.73;6.97;;;;;;;20.53;60.44;99394.84;126642;1089;114293;-79
2021/07/01 04:09:04;;;;;;;9.23;8.33;;;;;;;20.58;60.53;99394.44;126868;1088;102877;-79
2021/07/01 04:11:53;;;;;;;9.00;8.00;;;;;;;20.61;60.41;99392.36;126597;1090;114167;-79
2021/07/01 04:14:41;;;;;;;9.07;8.17;;;;;;;20.64;60.09;99388.59;126690;1089;102843;-79
2021/07/01 04:17:48;;;;;;;12.53;9.50;;;;;;;20.66;60.91;99389.33;126734;1089;114425;-80
2021/07/01 04:20:59;;;;;;;14.63;9.90;;;;;;;20.63;60.39;99393.06;126750;1089;102922;-80
2021/07/01 04:24:17;;;;;;;11.87;10.30;;;;;;;20.63;60.81;99394.88;126660;1089;114546;-80
2021/07/01 04:27:40;;;;;;;11.47;10.27;;;;;;;20.62;60.62;99401.14;126757;1089;102867;-80
2021/07/01 04:30:30;;;;;;;10.47;9.27;;;;;;;20.60;60.64;99395.14;126707;1090;114523;-80
2021/07/01 04:33:47;;;;;;;12.00;9.53;;;;;;;20.62;60.63;99406.45;126705;1089;103044;-79
2021/07/01 04:36:35;;;;;;;13.73;10.40;;;;;;;20.68;60.27;99403.28;126737;1088;114430;-79
2021/07/01 04:39:27;;;;;;;13.37;10.53;;;;;;;20.66;61.07;99395.47;126708;1090;101641;-79
2021/07/01 04:42:41;;;;;;;10.77;9.67;;;;;;;20.72;60.99;99391.44;126643;1089;114579;-79
2021/07/01 04:45:30;;;;;;;9.43;8.53;;;;;;;20.83;60.39;99401.94;126679;1090;103049;-79
2021/07/01 04:48:18;;;;;;;8.20;7.33;;;;;;;20.89;60.74;99404.05;126549;1089;114276;-79
2021/07/01 04:51:07;;;;;;;8.83;8.03;;;;;;;21.00;60.10;99398.61;126731;1089;102840;-79
2021/07/01 04:54:13;;;;;;;9.47;7.37;;;;;;;21.09;59.85;99397.81;126622;1090;114164;-79
2021/07/01 04:57:19;;;;;;;13.23;6.90;;;;;;;21.19;60.22;99391.70;126788;1090;102943;-80
2021/07/01 05:00:07;;;;;;;7.43;6.33;;;;;;;21.31;59.36;99399.41;126581;1090;113395;-79
2021/07/01 05:03:15;;;;;;;;;;;;;;;21.49;59.18;99410.16;126608;1090;102708;-79
2021/07/01 05:06:08;;;;;;;6.73;5.90;;;;;;;21.61;58.64;99411.72;126789;1090;103033;-80
2021/07/01 05:08:57;;;;;;;6.07;5.47;;;;;;;21.76;58.35;99411.30;126776;1088;102873;-79
2021/07/01 05:11:45;;;;;;;7.90;6.07;;;;;;;21.94;57.85;99415.75;126617;1090;114495;-79
2021/07/01 05:14:34;;;;;;;7.50;6.80;;;;;;;22.23;57.85;99417.53;126881;1088;103478;-79
2021/07/01 05:17:22;;;;;;;7.43;5.80;;;;;;;22.56;57.29;99413.52;126636;1089;114127;-79
2021/07/01 05:20:11;;;;;;;6.70;4.30;;;;;;;22.94;56.41;99415.19;126787;1090;102911;-79
2021/07/01 05:23:18;;;;;;;4.60;3.65;;;;;;;23.29;56.19;99419.73;126629;1090;114281;-79
2021/07/01 05:26:35;;;;;;;5.83;3.27;;;;;;;23.68;54.21;99414.14;126604;1090;102855;-79
2021/07/01 05:29:42;;;;;;;4.63;2.90;;;;;;;23.88;53.64;99415.67;126715;1089;113352;-79
2021/07/01 05:33:08;;;;;;;3.70;2.93;;;;;;;23.90;52.96;99408.36;126849;1088;103035;-79
2021/07/01 05:36:00;;;;;;;3.00;2.70;;;;;;;23.90;52.66;99418.18;126734;1089;114266;-80
2021/07/01 05:38:49;;;;;;;5.93;3.67;;;;;;;23.84;52.35;99424.10;126816;1089;103180;-77
2021/07/01 05:41:41;;;;;;;5.07;3.43;;;;;;;23.65;52.08;99415.29;126748;1088;114258;-77
2021/07/01 05:44:30;;;;;;;5.15;4.60;;;;;;;23.56;52.15;99420.67;126718;1090;102997;-77
2021/07/01 05:47:18;;;;;;;4.23;3.83;;;;;;;23.47;52.01;99423.24;126783;1090;114603;-78
2021/07/01 05:50:09;;;;;;;3.33;3.03;;;;;;;23.37;52.40;99434.97;126703;1088;102702;-79
2021/07/01 05:53:05;;;;;;;3.47;2.93;;;;;;;23.37;52.61;99438.46;126774;1090;113338;-82
2021/07/01 05:55:53;;;;;;;6.07;3.37;;;;;;;23.29;52.20;99438.36;126853;1090;102963;-82
2021/07/01 05:58:41;;;;;;;3.33;3.03;;;;;;;23.28;52.46;99435.84;126750;1090;114495;-82
2021/07/01 06:01:28;;;;;;;4.20;3.23;;;;;;;23.24;52.80;99430.00;126714;1089;102860;-82
2021/07/01 06:04:17;;;;;;;13.07;9.83;;;;;;;23.23;52.73;99430.98;126766;1090;102888;-82
2021/07/01 06:07:46;;;;;;;5.53;5.00;;;;;;;23.27;53.54;99416.39;126897;1090;102843;-82
2021/07/01 06:10:41;;;;;;;4.70;4.30;;;;;;;23.27;52.58;99421.71;126764;1089;102934;-82
2021/07/01 06:13:30;;;;;;;8.03;4.17;;;;;;;23.22;53.57;99426.66;126701;1089;114094;-82
2021/07/01 06:16:23;;;;;;;3.73;3.40;;;;;;;23.23;53.28;99430.15;126921;1090;103390;-82
2021/07/01 06:19:12;;;;;;;7.07;4.53;;;;;;;23.16;53.22;99433.42;126826;1088;114299;-82
2021/07/01 06:22:00;;;;;;;4.90;4.50;;;;;;;23.06;53.72;99437.94;126694;1089;103001;-82
2021/07/01 06:24:53;;;;;;;8.47;5.27;;;;;;;22.96;53.75;99437.14;126710;1089;114188;-80
2021/07/01 06:27:42;;;;;;;5.50;5.00;;;;;;;22.90;53.82;99438.58;126835;1090;102940;-81
2021/07/01 06:30:31;;;;;;;4.67;4.27;;;;;;;22.93;53.52;99428.63;126688;1090;114083;-80
2021/07/01 06:33:21;;;;;;;5.63;4.80;;;;;;;23.09;53.73;99436.80;126841;1088;102690;-80
2021/07/01 06:36:10;;;;;;;5.87;4.70;;;;;;;23.60;53.34;99441.54;126768;1089;114179;-81
2021/07/01 06:39:21;;;;;;;6.93;5.30;;;;;;;24.20;52.98;99451.52;126804;1089;103094;-80
2021/07/01 06:42:33;;;;;;;5.20;4.20;;;;;;;24.92;51.50;99453.80;126746;1090;114257;-80
2021/07/01 06:45:42;;;;;;;4.27;3.77;;;;;;;24.94;50.07;99456.30;126832;1090;101739;-81
2021/07/01 06:48:56;;;;;;;3.20;2.83;;;;;;;24.43;49.76;99457.23;126735;1088;114076;-81
2021/07/01 06:52:14;;;;;;;2.80;2.50;;;;;;;24.19;50.35;99460.50;126893;1088;102875;-81
2021/07/01 06:55:23;;;;;;;8.67;2.63;;;;;;;23.99;50.24;99460.69;126687;1089;113181;-81
2021/07/01 06:58:22;;;;;;;5.00;3.03;;;;;;;23.72;50.84;99452.81;126714;1090;101503;-82
2021/07/01 07:01:11;;;;;;;2.50;2.10;;;;;;;23.54;51.28;99454.59;126689;1090;114684;-81
2021/07/01 07:04:01;;;;;;;2.73;2.27;;;;;;;23.42;51.49;99452.14;126735;1090;102880;-82
2021/07/01 07:06:49;;;;;;;2.93;2.47;;;;;;;23.33;51.87;99450.37;126603;1090;113059;-82
2021/07/01 07:09:39;;;;;;;5.53;2.60;;;;;;;23.29;52.24;99451.66;126717;1090;102962;-82
2021/07/01 07:12:28;;;;;;;3.13;2.83;;;;;;;23.26;52.51;99449.30;126722;1090;114128;-81
2021/07/01 07:15:25;;;;;;;3.97;2.80;;;;;;;23.30;52.22;99447.17;126633;1090;102859;-82
2021/07/01 07:18:13;;;;;;;;;;;;;;;23.28;52.08;99449.98;126628;1090;114053;-82
2021/07/01 07:21:06;;;;;;;3.15;2.85;;;;;;;23.24;52.54;99450.45;126792;1089;103016;-81
2021/07/01 07:23:55;;;;;;;5.13;3.60;;;;;;;23.28;52.25;99452.65;126587;1088;114369;-81
2021/07/01 07:26:49;;;;;;;3.13;2.83;;;;;;;23.30;52.58;99452.50;126729;1089;102845;-81
2021/07/01 07:29:46;;;;;;;5.50;3.60;;;;;;;23.44;52.12;99458.15;126570;1090;114285;-80
2021/07/01 07:32:39;;;;;;;4.85;3.10;;;;;;;23.66;52.07;99448.91;126845;1088;102657;-81
2021/07/01 07:35:33;;;;;;;2.95;2.73;;;;;;;24.23;51.55;99445.88;126590;1090;114468;-81
2021/07/01 07:38:21;;;;;;;3.07;2.87;;;;;;;24.58;51.01;99453.80;126828;1089;101756;-80
2021/07/01 07:41:14;;;;;;;3.90;3.50;;;;;;;24.94;50.61;99451.80;126744;1089;114254;-82
2021/07/01 07:44:03;;;;;;;3.43;3.13;;;;;;;24.97;50.15;99453.34;126773;1090;102128;-82
2021/07/01 07:46:53;;;;;;;4.83;2.93;;;;;;;24.76;49.46;99455.55;126697;1090;102930;-82
2021/07/01 07:49:42;;;;;;;2.70;2.50;;;;;;;24.58;49.83;99456.46;126741;1090;114337;-82
2021/07/01 07:52:31;;;;;;;4.50;2.50;;;;;;;24.48;49.55;99455.75;126868;1090;100965;-82
2021/07/01 07:55:23;;;;;;;3.10;2.27;;;;;;;24.44;49.03;99459.73;126609;1088;114110;-82
2021/07/01 07:58:13;;;;;;;3.10;2.30;;;;;;;24.39;49.25;99457.52;126681;1090;100629;-81
2021/07/01 08:01:02;;;;;;;3.43;2.30;;;;;;;24.44;49.06;99457.06;126579;1088;114352;-80
2021/07/01 08:03:54;;;;;;;2.97;2.60;;;;;;;24.76;48.98;99452.89;126867;1089;102872;-80
2021/07/01 08:06:44;;;;;;;3.17;2.47;;;;;;;25.34;48.30;99453.00;126749;1089;113217;-80
2021/07/01 08:09:36;;;;;;;4.90;2.53;;;;;;;25.95;47.21;99442.91;126759;1090;102887;-80
2021/07/01 08:12:25;;;;;;;2.77;2.30;;;;;;;26.41;46.55;99447.59;126780;1088;114005;-81
2021/07/01 08:15:15;;;;;;;3.10;2.10;;;;;;;26.56;45.60;99445.02;126918;1089;101231;-81
2021/07/01 08:18:04;;;;;;;3.90;2.30;;;;;;;26.91;45.32;99438.38;126843;1089;113226;-81
2021/07/01 08:20:53;;;;;;;3.93;2.10;;;;;;;27.32;44.79;99433.72;126755;1089;102919;-80
2021/07/01 08:23:42;;;;;;;2.23;1.77;;;;;;;27.84;43.67;99429.55;126703;1090;114457;-80
2021/07/01 08:26:31;;;;;;;3.60;1.70;;;;;;;28.10;42.52;99446.05;126879;1088;101012;-80
2021/07/01 08:29:21;;;;;;;2.00;1.80;;;;;;;29.04;42.39;99444.58;126886;1090;102924;-79
2021/07/01 08:32:10;;;;;;;4.80;1.77;;;;;;;30.34;41.13;99436.39;126633;1088;102968;-79
2021/07/01 08:35:02;;;;;;;2.27;1.83;;;;;;;31.61;39.18;99444.92;126723;1089;103004;-80
2021/07/01 08:37:53;;;;;;;2.53;1.70;;;;;;;32.68;37.71;99430.41;126511;1088;114430;-81
2021/07/01 08:40:50;;;;;;;2.13;1.60;;;;;;;33.39;36.16;99438.45;126669;1090;103099;-80
2021/07/01 08:43:47;;;;;;;3.73;2.20;;;;;;;33.72;34.94;99448.24;126775;1089;114232;-81
2021/07/01 08:47:06;;;;;;;3.43;1.33;;;;;;;34.35;33.47;99426.53;126776;1090;102956;-81
2021/07/01 08:49:58;;;;;;;1.30;1.20;;;;;;;35.17;32.27;99425.21;126723;1090;113981;-81
2021/07/01 08:53:27;;;;;;;2.00;1.17;;;;;;;36.08;32.21;99421.38;127014;1088;102940;-79
2021/07/01 08:56:17;;;;;;;2.70;1.00;;;;;;;37.36;30.05;99422.31;126364;1093;114067;-82
2021/07/01 08:59:07;;;;;;;1.70;1.30;;;;;;;38.02;29.70;99410.66;126403;1092;100681;-79
2021/07/01 09:01:59;;;;;;;1.53;1.30;;;;;;;38.12;28.83;99414.63;126433;1093;114146;-81
2021/07/01 09:04:50;;;;;;;1.70;1.30;;;;;;;38.43;28.33;99413.22;126379;1092;103173;-82
2021/07/01 09:07:40;;;;;;;1.57;1.40;;;;;;;38.35;27.32;99426.17;126250;1093;114169;-82
2021/07/01 09:10:30;;;;;;;1.60;1.23;;;;;;;37.96;27.27;99422.56;126367;1093;103051;-82
2021/07/01 09:13:21;;;;;;;2.00;1.30;;;;;;;37.48;26.58;99421.16;126378;1093;113259;-82
2021/07/01 09:16:10;;;;;;;2.27;1.13;;;;;;;37.02;26.66;99416.73;126469;1092;103004;-81
2021/07/01 09:19:00;;;;;;;0.97;0.90;;;;;;;36.91;26.36;99420.30;126371;1092;114294;-82
2021/07/01 09:21:50;;;;;;;1.90;1.13;;;;;;;37.13;26.25;99418.56;126633;1093;103182;-81
2021/07/01 09:24:39;;;;;;;3.73;1.23;;;;;;;37.02;26.26;99418.63;126522;1092;113375;-81
2021/07/01 09:27:29;;;;;;;2.17;1.10;;;;;;;37.03;26.30;99418.38;126423;1093;102884;-80
2021/07/01 09:30:27;;;;;;;2.20;1.20;;;;;;;37.22;26.49;99427.17;126229;1093;114276;-80
2021/07/01 09:33:16;;;;;;;1.70;1.40;;;;;;;37.31;25.70;99428.45;126617;1090;102934;-82
2021/07/01 09:36:04;;;;;;;1.40;1.30;;;;;;;37.32;26.11;99430.10;126742;1089;113407;-81
2021/07/01 09:38:54;;;;;;;2.47;1.57;;;;;;;37.32;25.61;99421.95;126725;1089;102911;-80
2021/07/01 09:41:43;;;;;;;2.33;1.50;;;;;;;37.06;25.87;99409.73;126707;1088;102436;-80
2021/07/01 09:44:34;;;;;;;1.63;1.47;;;;;;;36.97;26.32;99413.89;126546;1090;113060;-80
2021/07/01 09:47:29;;;;;;;3.53;1.53;;;;;;;37.26;26.39;99416.63;126862;1089;102927;-81
2021/07/01 09:50:21;;;;;;;1.77;1.30;;;;;;;37.47;26.18;99405.91;126759;1089;114045;-81
2021/07/01 09:53:37;;;;;;;1.73;1.10;;;;;;;37.59;24.99;99410.47;126752;1090;103063;-81
2021/07/01 09:56:37;;;;;;;1.10;1.00;;;;;;;37.47;25.50;99405.91;126749;1089;114101;-80
2021/07/01 09:59:30;;;;;;;2.15;1.10;;;;;;;37.73;25.07;99420.83;126728;1089;102960;-79
2021/07/01 10:02:20;;;;;;;3.50;1.20;;;;;;;37.83;24.41;99413.89;126608;1090;114292;-81
2021/07/01 10:05:27;;;;;;;1.70;1.50;;;;;;;37.67;24.42;99413.59;126803;1090;102898;-80
2021/07/01 10:08:17;;;;;;;2.53;1.20;;;;;;;37.52;24.68;99416.05;126634;1090;114217;-84
2021/07/01 10:11:05;;;;;;;1.80;1.20;;;;;;;37.12;23.90;99397.06;126972;1090;102926;-79
2021/07/01 10:13:53;;;;;;;1.80;1.20;;;;;;;36.90;23.55;99395.02;126811;1090;113018;-80
2021/07/01 10:16:41;;;;;;;1.33;1.10;;;;;;;36.44;25.02;99387.75;126879;1090;102868;-80
2021/07/01 10:19:30;;;;;;;1.43;1.20;;;;;;;36.22;25.12;99400.27;126701;1089;114203;-80
2021/07/01 10:22:19;;;;;;;3.83;1.30;;;;;;;35.93;24.83;99400.16;126897;1089;101771;-80
2021/07/01 10:25:09;;;;;;;1.83;1.30;;;;;;;35.46;25.18;99404.62;126751;1088;114207;-80
2021/07/01 10:28:12;;;;;;;3.13;1.40;;;;;;;35.26;25.81;99399.45;126788;1090;101993;-79
2021/07/01 10:31:10;;;;;;;2.50;1.30;;;;;;;35.34;26.04;99403.71;126688;1090;114222;-78
2021/07/01 10:33:59;;;;;;;3.23;2.10;;;;;;;34.75;26.02;99400.70;126740;1088;102943;-78
2021/07/01 10:37:11;;;;;;;2.40;1.47;;;;;;;34.48;26.58;99386.66;126607;1089;114284;-80
2021/07/01 10:40:17;;;;;;;1.50;1.17;;;;;;;34.06;26.83;99388.28;126795;1088;102991;-78
2021/07/01 10:43:08;;;;;;;3.67;1.50;;;;;;;33.65;27.33;99395.05;126575;1088;114088;-78
2021/07/01 10:45:58;;;;;;;1.80;1.30;;;;;;;33.38;27.86;99398.13;126805;1089;102961;-79
2021/07/01 10:48:56;;;;;;;1.87;1.07;;;;;;;33.19;27.23;99405.28;126711;1089;113584;-80
2021/07/01 10:52:05;;;;;;;1.53;1.10;;;;;;;32.83;27.57;99398.59;126775;1090;102932;-78
2021/07/01 10:55:00;;;;;;;2.53;1.40;;;;;;;32.53;28.44;99400.95;126551;1090;114362;-78
2021/07/01 10:58:17;;;;;;;1.60;1.43;;;;;;;32.29;28.58;99401.61;126709;1089;103004;-78
2021/07/01 11:01:32;;;;;;;2.03;1.60;;;;;;;31.89;28.72;99398.09;126586;1089;114121;-82
2021/07/01 11:04:22;;;;;;;1.40;1.30;;;;;;;31.55;28.96;99402.59;126783;1088;102952;-81
2021/07/01 11:07:10;;;;;;;4.20;1.47;;;;;;;31.45;29.33;99411.09;126527;1090;114166;-78
2021/07/01 11:09:58;;;;;;;2.55;1.20;;;;;;;31.28;29.04;99407.11;126815;1090;102998;-82
2021/07/01 11:12:48;;;;;;;2.10;1.10;;;;;;;31.15;28.39;99402.48;126721;1090;114428;-79
2021/07/01 11:16:08;;;;;;;1.23;1.10;;;;;;;30.89;28.49;99402.40;126833;1088;102905;-78
2021/07/01 11:18:56;;;;;;;1.60;1.13;;;;;;;30.61;29.63;99397.05;126702;1090;114275;-78
2021/07/01 11:21:50;;;;;;;1.13;1.10;;;;;;;30.38;29.36;99394.64;126782;1089;103457;-79
2021/07/01 11:24:42;;;;;;;1.47;1.10;;;;;;;30.14;29.57;99385.15;126565;1090;114406;-79
2021/07/01 11:27:32;;;;;;;1.30;1.20;;;;;;;30.02;29.86;99392.91;126667;1088;102876;-78
2021/07/01 11:30:26;;;;;;;1.33;1.23;;;;;;;29.86;30.68;99401.26;126714;1089;114267;-78
2021/07/01 11:33:16;;;;;;;1.40;1.30;;;;;;;29.64;30.87;99400.45;126727;1090;102849;-79
2021/07/01 11:36:13;;;;;;;1.33;1.20;;;;;;;29.57;31.91;99401.39;126755;1090;102873;-79
2021/07/01 11:39:16;;;;;;;1.53;1.43;;;;;;;29.64;32.05;99407.69;126812;1088;102952;-78
2021/07/01 11:42:05;;;;;;;1.73;1.20;;;;;;;29.77;31.93;99410.47;126788;1089;102964;-79
2021/07/01 11:44:52;;;;;;;3.00;1.30;;;;;;;29.91;32.23;99401.50;126679;1088;114159;-80
2021/07/01 11:47:45;;;;;;;2.10;1.40;;;;;;;30.11;31.65;99398.99;126795;1090;102796;-81
2021/07/01 11:50:34;;;;;;;2.40;1.60;;;;;;;30.30;32.46;99418.98;126902;1090;102994;-81
2021/07/01 11:53:24;;;;;;;2.95;1.80;;;;;;;30.51;32.15;99410.02;126500;1090;203431;-82
2021/07/01 11:56:12;;;;;;;2.13;1.63;;;;;;;30.68;31.93;99411.38;126722;1089;102818;-81
2021/07/01 11:59:03;;;;;;;1.57;1.47;;;;;;;30.93;32.22;99419.80;126999;1089;102873;-80
2021/07/01 12:01:51;;;;;;;3.20;1.47;;;;;;;31.07;31.73;99416.14;127051;1090;114091;-80
2021/07/01 12:04:40;;;;;;;1.50;1.40;;;;;;;31.01;30.94;99416.92;126821;1090;102910;-79
2021/07/01 12:07:31;;;;;;;2.13;1.67;;;;;;;30.87;31.45;99409.81;126745;1090;114187;-79
2021/07/01 12:10:21;;;;;;;4.13;1.50;;;;;;;30.84;31.47;99426.38;126795;1089;102954;-78
2021/07/01 12:13:31;;;;;;;4.37;1.60;;;;;;;30.78;31.33;99428.02;126711;1089;114149;-78
2021/07/01 12:16:20;;;;;;;3.50;1.37;;;;;;;30.47;31.34;99419.52;126638;1090;114379;-79
2021/07/01 12:19:10;;;;;;;2.10;1.53;;;;;;;30.35;31.96;99424.63;126646;1090;102943;-80
2021/07/01 12:21:59;;;;;;;1.70;1.53;;;;;;;30.23;31.96;99418.95;126546;1089;114224;-79
2021/07/01 12:24:47;;;;;;;3.30;1.63;;;;;;;30.12;32.13;99435.61;126887;1089;104009;-78
2021/07/01 12:27:36;;;;;;;4.93;1.50;;;;;;;30.07;32.02;99425.45;126612;1090;113495;-78
2021/07/01 12:31:06;;;;;;;3.33;1.40;;;;;;;30.03;32.21;99426.01;126917;1090;102898;-79
2021/07/01 12:34:03;;;;;;;1.65;1.48;;;;;;;29.91;32.09;99428.38;126412;1093;114467;-78
2021/07/01 12:37:05;;;;;;;5.33;1.60;;;;;;;29.98;32.40;99425.73;126342;1093;103016;-78
2021/07/01 12:39:53;;;;;;;1.43;1.13;;;;;;;30.00;32.66;99431.78;126213;1092;114460;-79
2021/07/01 12:42:41;;;;;;;1.40;1.30;;;;;;;30.07;32.43;99430.00;126632;1093;101947;-79
2021/07/01 12:45:32;;;;;;;1.40;1.30;;;;;;;29.95;31.91;99435.03;126286;1092;113378;-79
2021/07/01 12:48:39;;;;;;;1.40;1.30;;;;;;;29.81;31.96;99435.96;126322;1093;102875;-79
2021/07/01 12:52:03;;;;;;;1.53;1.40;;;;;;;29.70;32.44;99428.40;126518;1092;114218;-79
2021/07/01 12:54:52;;;;;;;3.33;1.40;;;;;;;29.71;32.76;99430.89;126377;1093;103188;-79
2021/07/01 12:57:40;;;;;;;1.63;1.50;;;;;;;29.68;32.78;99441.20;126280;1093;114152;-79
2021/07/01 13:00:29;;;;;;;1.60;1.50;;;;;;;29.61;32.69;99445.66;126330;1092;102448;-79
2021/07/01 13:03:19;;;;;;;2.73;1.60;;;;;;;29.58;32.55;99446.88;126271;1093;114363;-80
2021/07/01 13:06:07;;;;;;;3.90;1.50;;;;;;;29.56;33.11;99448.93;126471;1092;102901;-79
2021/07/01 13:08:55;;;;;;;1.43;1.33;;;;;;;29.58;33.04;99451.42;126284;1090;113253;-79
2021/07/01 13:11:44;;;;;;;2.00;1.40;;;;;;;29.44;33.13;99451.27;126894;1090;102814;-79
2021/07/01 13:14:38;;;;;;;1.70;1.60;;;;;;;29.33;33.11;99459.81;126705;1089;102959;-80
2021/07/01 13:17:28;;;;;;;1.60;1.50;;;;;;;29.21;33.60;99455.94;126575;1089;114268;-79
2021/07/01 13:20:17;;;;;;;1.93;1.50;;;;;;;29.15;33.23;99452.16;126736;1090;102960;-79